Time;durP1;ratioP1;P1;durP2;ratioP2;P2;SDS_P1;SDS_P2;PMS_P1;PMS_P2;Temp;Humidity;BMP_temperature;BMP_pressure;BME280_temperature;BME280_humidity;BME280_pressure;Samples;Min_cycle;Max_cycle;Signal;HPM_P1;HPM_P2
2022/09/30 00:01:44;;;;;;;7.45;5.20;;;;;;;;;;5051922;28;20091;-66
2022/09/30 00:04:13;;;;;;;11.68;6.57;;;;;;;;;;5049476;28;20062;-66
2022/09/30 00:06:40;;;;;;;14.02;7.63;;;;;;;;;;5050902;28;20486;-66
2022/09/30 00:09:06;;;;;;;13.50;7.63;;;;;;;;;;5051290;28;20049;-66
2022/09/30 00:11:33;;;;;;;12.55;7.43;;;;;;;;;;5033788;28;20037;-66
2022/09/30 00:14:00;;;;;;;13.10;7.18;;;;;;;;;;5050527;28;20116;-66
2022/09/30 00:16:28;;;;;;;11.02;6.43;;;;;;;;;;5038839;28;20041;-66
2022/09/30 00:18:55;;;;;;;10.45;7.40;;;;;;;;;;5050673;28;20132;-72
2022/09/30 00:21:21;;;;;;;10.07;7.03;;;;;;;;;;5050098;28;20037;-66
2022/09/30 00:23:47;;;;;;;11.88;7.35;;;;;;;;;;5051706;28;20049;-66
2022/09/30 00:26:15;;;;;;;12.10;7.75;;;;;;;;;;5049818;28;20041;-66
2022/09/30 00:28:41;;;;;;;9.60;7.15;;;;;;;;;;5052945;28;20037;-66
2022/09/30 00:31:08;;;;;;;13.52;7.40;;;;;;;;;;5055482;28;20045;-66
2022/09/30 00:33:35;;;;;;;10.43;7.03;;;;;;;;;;5055993;28;20029;-66
2022/09/30 00:36:01;;;;;;;10.90;6.75;;;;;;;;;;5054241;28;20041;-66
2022/09/30 00:38:28;;;;;;;8.05;5.32;;;;;;;;;;5055319;28;20049;-67
2022/09/30 00:40:55;;;;;;;10.40;6.72;;;;;;;;;;5055814;28;20191;-67
2022/09/30 00:43:40;;;;;;;11.00;7.05;;;;;;;;;;5055092;28;20072;-66
2022/09/30 00:46:08;;;;;;;12.90;7.57;;;;;;;;;;5054092;28;20037;-66
2022/09/30 00:48:37;;;;;;;9.85;6.85;;;;;;;;;;5054234;28;20396;-66
2022/09/30 00:51:04;;;;;;;11.52;7.53;;;;;;;;;;5055392;28;20048;-67
2022/09/30 00:53:34;;;;;;;12.27;7.30;;;;;;;;;;5051986;28;20543;-72
2022/09/30 00:56:01;;;;;;;8.63;4.90;;;;;;;;;;5055424;28;20467;-72
2022/09/30 00:58:34;;;;;;;7.50;5.20;;;;;;;;;;5053971;28;20067;-72
2022/09/30 01:01:01;;;;;;;9.90;6.70;;;;;;;;;;5055289;28;20045;-71
2022/09/30 01:03:31;;;;;;;11.07;7.10;;;;;;;;;;5054989;28;20052;-71
2022/09/30 01:05:57;;;;;;;11.73;6.80;;;;;;;;;;5054827;28;20049;-72
2022/09/30 01:08:24;;;;;;;11.82;6.32;;;;;;;;;;5054266;28;20057;-72
2022/09/30 01:10:50;;;;;;;8.10;5.13;;;;;;;;;;5054196;28;20041;-72
2022/09/30 01:13:17;;;;;;;7.97;5.43;;;;;;;;;;5053937;28;20112;-72
2022/09/30 01:15:50;;;;;;;8.68;6.35;;;;;;;;;;5037083;28;20041;-67
2022/09/30 01:18:33;;;;;;;9.15;5.47;;;;;;;;;;5054379;28;20037;-66
2022/09/30 01:21:03;;;;;;;7.95;5.90;;;;;;;;;;5055082;28;20469;-66
2022/09/30 01:23:47;;;;;;;10.20;6.45;;;;;;;;;;5053093;28;20075;-66
2022/09/30 01:26:25;;;;;;;9.90;5.95;;;;;;;;;;5059222;28;20104;-66
2022/09/30 01:28:51;;;;;;;11.00;6.47;;;;;;;;;;5054413;28;20033;-67
2022/09/30 01:31:36;;;;;;;10.18;5.63;;;;;;;;;;5053367;28;20052;-66
2022/09/30 01:34:14;;;;;;;11.68;5.80;;;;;;;;;;5053549;28;20045;-66
2022/09/30 01:36:43;;;;;;;7.65;4.50;;;;;;;;;;5053943;28;20040;-72
2022/09/30 01:39:28;;;;;;;6.95;4.15;;;;;;;;;;5047763;28;20405;-71
2022/09/30 01:42:03;;;;;;;12.27;6.20;;;;;;;;;;5054010;28;20119;-71
2022/09/30 01:44:36;;;;;;;12.70;5.88;;;;;;;;;;5054109;28;20059;-66
2022/09/30 01:47:12;;;;;;;8.80;5.78;;;;;;;;;;5052780;28;20056;-71
2022/09/30 01:49:45;;;;;;;7.45;5.32;;;;;;;;;;5053065;28;20437;-66
2022/09/30 01:52:14;;;;;;;11.57;5.68;;;;;;;;;;5054154;28;20037;-66
2022/09/30 01:55:00;;;;;;;11.60;6.60;;;;;;;;;;5052833;28;20098;-66
2022/09/30 01:57:26;;;;;;;;;;;;;;;;;;5054104;28;20045;-71
2022/09/30 01:59:52;;;;;;;9.10;6.47;;;;;;;;;;5053272;28;19923;-72
2022/09/30 02:02:20;;;;;;;13.80;8.23;;;;;;;;;;5049976;28;20066;-71
2022/09/30 02:04:56;;;;;;;10.82;7.93;;;;;;;;;;5053325;28;20505;-71
2022/09/30 02:07:24;;;;;;;12.57;8.75;;;;;;;;;;5050576;28;20051;-71
2022/09/30 02:10:12;;;;;;;12.60;8.40;;;;;;;;;;5068245;28;20040;-66
2022/09/30 02:12:41;;;;;;;13.38;8.07;;;;;;;;;;5067561;28;20065;-66
2022/09/30 02:15:12;;;;;;;13.57;8.48;;;;;;;;;;5053704;28;20521;-65
2022/09/30 02:17:42;;;;;;;13.82;9.18;;;;;;;;;;5053174;28;20041;-71
2022/09/30 02:20:28;;;;;;;10.88;7.82;;;;;;;;;;5063714;28;20090;-71
2022/09/30 02:23:03;;;;;;;14.32;8.13;;;;;;;;;;5048201;28;20047;-71
2022/09/30 02:25:33;;;;;;;6.65;4.85;;;;;;;;;;5052570;28;20051;-66
2022/09/30 02:28:02;;;;;;;7.22;5.10;;;;;;;;;;5052118;28;20059;-66
2022/09/30 02:30:28;;;;;;;6.97;4.40;;;;;;;;;;5053175;28;20045;-71
2022/09/30 02:33:02;;;;;;;13.85;6.40;;;;;;;;;;5053000;28;20116;-71
2022/09/30 02:35:31;;;;;;;13.85;7.32;;;;;;;;;;5044775;28;20488;-71
2022/09/30 02:38:04;;;;;;;7.88;5.80;;;;;;;;;;5051283;28;20072;-72
2022/09/30 02:40:38;;;;;;;9.52;6.55;;;;;;;;;;5044331;28;20138;-71
2022/09/30 02:43:05;;;;;;;9.98;6.78;;;;;;;;;;5053028;28;20119;-71
2022/09/30 02:45:34;;;;;;;8.68;6.20;;;;;;;;;;5052494;28;20433;-71
2022/09/30 02:48:12;;;;;;;11.98;8.82;;;;;;;;;;5051769;28;20073;-71
2022/09/30 02:50:41;;;;;;;11.07;8.20;;;;;;;;;;5052103;28;20033;-71
2022/09/30 02:53:23;;;;;;;10.07;7.70;;;;;;;;;;5050221;28;20041;-72
2022/09/30 02:56:07;;;;;;;10.60;7.05;;;;;;;;;;5052895;28;20044;-72
2022/09/30 02:58:38;;;;;;;12.38;7.75;;;;;;;;;;5051384;28;20394;-66
2022/09/30 03:01:06;;;;;;;8.40;6.07;;;;;;;;;;5053106;28;20037;-66
2022/09/30 03:03:34;;;;;;;11.45;8.23;;;;;;;;;;5065960;28;20115;-66
2022/09/30 03:06:01;;;;;;;9.20;6.97;;;;;;;;;;5052770;28;20482;-65
2022/09/30 03:08:27;;;;;;;13.68;7.78;;;;;;;;;;5052373;28;20053;-66
2022/09/30 03:10:53;;;;;;;6.70;4.22;;;;;;;;;;5052865;28;20037;-66
2022/09/30 03:13:19;;;;;;;8.00;5.28;;;;;;;;;;5051247;28;20547;-71
2022/09/30 03:15:51;;;;;;;7.63;5.57;;;;;;;;;;5051691;28;20072;-66
2022/09/30 03:18:35;;;;;;;9.00;6.38;;;;;;;;;;5052432;28;20051;-71
2022/09/30 03:21:04;;;;;;;9.63;7.40;;;;;;;;;;5052462;28;20044;-71
2022/09/30 03:23:39;;;;;;;15.98;9.57;;;;;;;;;;5051678;28;20032;-66
2022/09/30 03:26:23;;;;;;;12.93;8.95;;;;;;;;;;5052664;28;20048;-66
2022/09/30 03:29:00;;;;;;;14.10;10.07;;;;;;;;;;5028250;28;20041;-71
2022/09/30 03:31:41;;;;;;;9.57;5.50;;;;;;;;;;5051839;28;20051;-71
2022/09/30 03:34:19;;;;;;;9.55;6.80;;;;;;;;;;5050637;28;20044;-71
2022/09/30 03:36:54;;;;;;;11.77;7.78;;;;;;;;;;5052175;28;20090;-71
2022/09/30 03:39:25;;;;;;;10.43;7.05;;;;;;;;;;5052615;28;20048;-66
2022/09/30 03:42:17;;;;;;;12.25;7.82;;;;;;;;;;5051743;28;20091;-72
2022/09/30 03:44:53;;;;;;;12.07;8.50;;;;;;;;;;5043046;28;20051;-71
2022/09/30 03:47:20;;;;;;;12.70;8.02;;;;;;;;;;5052456;28;20040;-71
2022/09/30 03:49:49;;;;;;;16.25;9.57;;;;;;;;;;5051600;28;20047;-65
2022/09/30 03:52:15;;;;;;;13.02;6.95;;;;;;;;;;5051287;28;20036;-65
2022/09/30 03:54:50;;;;;;;12.35;8.82;;;;;;;;;;5051414;28;20048;-65
2022/09/30 03:57:16;;;;;;;10.73;7.78;;;;;;;;;;5052047;28;20077;-65
2022/09/30 03:59:42;;;;;;;16.05;9.13;;;;;;;;;;5052038;28;20430;-65
2022/09/30 04:02:12;;;;;;;12.10;7.80;;;;;;;;;;5050394;28;20478;-66
2022/09/30 04:04:39;;;;;;;11.93;7.35;;;;;;;;;;5053106;28;20123;-71
2022/09/30 04:07:05;;;;;;;9.20;6.10;;;;;;;;;;5054554;28;20052;-65
2022/09/30 04:09:31;;;;;;;11.02;6.47;;;;;;;;;;5055861;28;20482;-66
2022/09/30 04:11:59;;;;;;;12.35;8.30;;;;;;;;;;5061989;28;20049;-70
2022/09/30 04:14:25;;;;;;;10.32;6.97;;;;;;;;;;5055908;28;20041;-66
2022/09/30 04:16:51;;;;;;;9.85;6.32;;;;;;;;;;5054853;28;20088;-65
2022/09/30 04:19:17;;;;;;;13.65;9.07;;;;;;;;;;5056040;28;20040;-71
2022/09/30 04:21:43;;;;;;;12.20;8.25;;;;;;;;;;5054234;28;20494;-71
2022/09/30 04:24:09;;;;;;;16.95;10.73;;;;;;;;;;5055528;28;20490;-72
2022/09/30 04:26:35;;;;;;;15.13;10.20;;;;;;;;;;5057564;28;20126;-72
2022/09/30 04:29:01;;;;;;;14.75;9.43;;;;;;;;;;5053894;28;20552;-72
2022/09/30 04:31:27;;;;;;;11.70;6.97;;;;;;;;;;5049571;28;20103;-72
2022/09/30 04:33:55;;;;;;;8.10;5.68;;;;;;;;;;5053936;28;20489;-71
2022/09/30 04:36:22;;;;;;;8.02;5.55;;;;;;;;;;5055060;28;20048;-72
2022/09/30 04:38:48;;;;;;;13.13;8.35;;;;;;;;;;5055535;28;20084;-67
2022/09/30 04:41:16;;;;;;;14.07;8.75;;;;;;;;;;5055358;28;20036;-67
2022/09/30 04:43:46;;;;;;;11.07;8.13;;;;;;;;;;5068620;28;20052;-72
2022/09/30 04:46:16;;;;;;;14.02;8.98;;;;;;;;;;5055127;28;20528;-72
2022/09/30 04:48:44;;;;;;;12.30;8.45;;;;;;;;;;5054465;28;20116;-72
2022/09/30 04:51:18;;;;;;;14.80;8.98;;;;;;;;;;5055720;28;20052;-72
2022/09/30 04:53:44;;;;;;;15.95;8.30;;;;;;;;;;5054408;28;20060;-72
2022/09/30 04:56:10;;;;;;;16.38;9.15;;;;;;;;;;5054674;28;20052;-72
2022/09/30 04:58:36;;;;;;;29.27;13.85;;;;;;;;;;5036943;28;20041;-72
2022/09/30 05:01:04;;;;;;;20.05;11.95;;;;;;;;;;5055154;28;20469;-72
2022/09/30 05:03:30;;;;;;;20.58;13.10;;;;;;;;;;5047228;28;20057;-72
2022/09/30 05:05:56;;;;;;;21.05;12.85;;;;;;;;;;5049217;28;20127;-72
2022/09/30 05:08:23;;;;;;;14.50;9.70;;;;;;;;;;5069995;28;20165;-67
2022/09/30 05:10:59;;;;;;;17.85;11.45;;;;;;;;;;5054817;28;20477;-67
2022/09/30 05:13:26;;;;;;;20.95;13.02;;;;;;;;;;5040787;28;20045;-67
2022/09/30 05:15:52;;;;;;;13.80;10.00;;;;;;;;;;5052169;28;20505;-66
2022/09/30 05:18:19;;;;;;;15.10;10.95;;;;;;;;;;5053382;28;20033;-66
2022/09/30 05:20:45;;;;;;;17.35;11.07;;;;;;;;;;5053150;28;20041;-71
2022/09/30 05:23:11;;;;;;;10.57;8.05;;;;;;;;;;5053883;28;20508;-72
2022/09/30 05:25:37;;;;;;;11.85;8.57;;;;;;;;;;5054469;28;20071;-72
2022/09/30 05:28:03;;;;;;;9.35;7.32;;;;;;;;;;5053219;28;20041;-71
2022/09/30 05:30:29;;;;;;;11.20;8.85;;;;;;;;;;5053176;28;20029;-71
2022/09/30 05:32:55;;;;;;;14.73;11.02;;;;;;;;;;5052606;28;20049;-72
2022/09/30 05:35:21;;;;;;;12.52;8.90;;;;;;;;;;5053750;28;20090;-72
2022/09/30 05:37:47;;;;;;;14.38;10.15;;;;;;;;;;5036002;28;20056;-71
2022/09/30 05:40:13;;;;;;;13.20;9.55;;;;;;;;;;5052470;28;20123;-66
2022/09/30 05:42:39;;;;;;;14.32;9.57;;;;;;;;;;5059739;28;20037;-66
2022/09/30 05:45:06;;;;;;;11.93;9.20;;;;;;;;;;5061121;28;20179;-67
2022/09/30 05:47:33;;;;;;;12.57;9.57;;;;;;;;;;5063777;28;20037;-67
2022/09/30 05:49:59;;;;;;;9.48;7.03;;;;;;;;;;5052327;28;20048;-66
2022/09/30 05:52:25;;;;;;;13.90;8.80;;;;;;;;;;5052097;28;20048;-67
2022/09/30 05:54:51;;;;;;;13.65;6.32;;;;;;;;;;5051596;28;20044;-67
2022/09/30 05:57:17;;;;;;;11.32;7.50;;;;;;;;;;5051125;28;20120;-67
2022/09/30 05:59:43;;;;;;;14.73;10.00;;;;;;;;;;5054017;28;20036;-72
2022/09/30 06:02:10;;;;;;;10.82;8.07;;;;;;;;;;5053665;28;20064;-67
2022/09/30 06:04:36;;;;;;;11.80;8.73;;;;;;;;;;5051454;28;20033;-67
2022/09/30 06:07:02;;;;;;;17.58;11.32;;;;;;;;;;5053283;28;20490;-67
2022/09/30 06:09:28;;;;;;;15.88;11.23;;;;;;;;;;5052697;28;20044;-67
2022/09/30 06:11:56;;;;;;;23.00;14.57;;;;;;;;;;5053352;28;20474;-67
2022/09/30 06:14:23;;;;;;;17.77;12.43;;;;;;;;;;5052395;28;20045;-67
2022/09/30 06:16:49;;;;;;;16.10;12.20;;;;;;;;;;5035046;28;20041;-72
2022/09/30 06:19:15;;;;;;;16.98;10.98;;;;;;;;;;5053629;28;20094;-70
2022/09/30 06:21:41;;;;;;;15.90;9.60;;;;;;;;;;5053400;28;20448;-70
2022/09/30 06:24:11;;;;;;;14.80;9.20;;;;;;;;;;5052706;28;20033;-71
2022/09/30 06:26:37;;;;;;;10.57;8.13;;;;;;;;;;5051213;28;20045;-71
2022/09/30 06:29:04;;;;;;;9.10;7.65;;;;;;;;;;5050366;28;20127;-74
2022/09/30 06:31:30;;;;;;;10.52;7.55;;;;;;;;;;5066955;28;20037;-73
2022/09/30 06:33:56;;;;;;;9.73;7.57;;;;;;;;;;5057711;28;20072;-72
2022/09/30 06:36:23;;;;;;;11.02;8.10;;;;;;;;;;5050988;28;20048;-73
2022/09/30 06:38:53;;;;;;;9.73;7.45;;;;;;;;;;5045970;28;20486;-71
2022/09/30 06:41:19;;;;;;;9.50;7.15;;;;;;;;;;5073433;28;20032;-66
2022/09/30 06:43:46;;;;;;;8.98;6.75;;;;;;;;;;5052559;28;20040;-66
2022/09/30 06:46:12;;;;;;;9.30;6.97;;;;;;;;;;5066042;28;20043;-67
2022/09/30 06:48:39;;;;;;;9.93;6.97;;;;;;;;;;5051696;28;20040;-72
2022/09/30 06:51:08;;;;;;;9.07;7.20;;;;;;;;;;5051715;28;20040;-72
2022/09/30 06:53:35;;;;;;;9.55;6.93;;;;;;;;;;5052672;28;20087;-73
2022/09/30 06:56:01;;;;;;;10.32;7.32;;;;;;;;;;5052362;28;20124;-73
2022/09/30 06:58:27;;;;;;;9.60;6.93;;;;;;;;;;5060018;28;20045;-73
2022/09/30 07:01:01;;;;;;;8.88;6.82;;;;;;;;;;5043188;28;20044;-74
2022/09/30 07:03:28;;;;;;;7.80;6.35;;;;;;;;;;5052958;28;20048;-73
2022/09/30 07:05:56;;;;;;;9.15;6.60;;;;;;;;;;5051261;28;20052;-73
2022/09/30 07:08:24;;;;;;;8.13;6.75;;;;;;;;;;5050169;28;20053;-73
2022/09/30 07:10:51;;;;;;;7.65;6.65;;;;;;;;;;5063381;28;20079;-74
2022/09/30 07:13:18;;;;;;;7.25;6.35;;;;;;;;;;5046210;28;20464;-74
2022/09/30 07:15:44;;;;;;;8.65;6.50;;;;;;;;;;5051599;28;20024;-67
2022/09/30 07:18:10;;;;;;;8.15;6.55;;;;;;;;;;5049364;28;20029;-67
2022/09/30 07:20:36;;;;;;;6.55;5.82;;;;;;;;;;5059454;28;20033;-67
2022/09/30 07:23:02;;;;;;;8.18;6.30;;;;;;;;;;5051957;28;20143;-67
2022/09/30 07:25:28;;;;;;;7.40;6.18;;;;;;;;;;5051674;28;20032;-67
2022/09/30 07:27:55;;;;;;;6.90;6.00;;;;;;;;;;5051346;28;20041;-67
2022/09/30 07:30:21;;;;;;;9.38;6.28;;;;;;;;;;5050915;28;20112;-66
2022/09/30 07:32:47;;;;;;;8.18;6.60;;;;;;;;;;5061527;28;20044;-66
2022/09/30 07:35:13;;;;;;;7.28;6.22;;;;;;;;;;5051631;28;20917;-66
2022/09/30 07:37:39;;;;;;;10.40;7.40;;;;;;;;;;5050079;28;20041;-73
2022/09/30 07:40:06;;;;;;;9.77;7.03;;;;;;;;;;5048894;28;20045;-73
2022/09/30 07:42:33;;;;;;;9.80;7.25;;;;;;;;;;5057003;28;20033;-73
2022/09/30 07:45:00;;;;;;;9.85;7.85;;;;;;;;;;5051380;28;20394;-73
2022/09/30 07:47:27;;;;;;;12.18;6.75;;;;;;;;;;5066938;28;20079;-66
2022/09/30 07:49:53;;;;;;;8.73;6.70;;;;;;;;;;5051416;28;20053;-67
2022/09/30 07:52:19;;;;;;;11.57;6.88;;;;;;;;;;5051409;28;20115;-73
2022/09/30 07:54:45;;;;;;;12.75;7.05;;;;;;;;;;5050581;28;20084;-73
2022/09/30 07:57:11;;;;;;;10.82;6.85;;;;;;;;;;5051493;28;20090;-73
2022/09/30 07:59:39;;;;;;;11.93;7.38;;;;;;;;;;5064124;28;20370;-72
2022/09/30 08:02:05;;;;;;;12.20;7.15;;;;;;;;;;5050973;28;20581;-73
2022/09/30 08:04:31;;;;;;;10.52;7.47;;;;;;;;;;5051694;28;20064;-73
2022/09/30 08:06:59;;;;;;;10.23;7.00;;;;;;;;;;5051711;28;20067;-72
2022/09/30 08:09:26;;;;;;;10.35;7.13;;;;;;;;;;5051448;28;20045;-73
2022/09/30 08:11:53;;;;;;;10.90;7.00;;;;;;;;;;5051222;28;20033;-73
2022/09/30 08:14:25;;;;;;;9.73;7.30;;;;;;;;;;5051271;28;20048;-73
2022/09/30 08:16:52;;;;;;;8.50;6.70;;;;;;;;;;5050377;28;20170;-66
2022/09/30 08:19:19;;;;;;;11.23;7.22;;;;;;;;;;5050128;28;20047;-73
2022/09/30 08:21:46;;;;;;;8.50;6.65;;;;;;;;;;5051577;28;20099;-73
2022/09/30 08:24:12;;;;;;;9.95;6.53;;;;;;;;;;5051210;28;20111;-66
2022/09/30 08:26:38;;;;;;;8.32;6.78;;;;;;;;;;5050885;28;20051;-67
2022/09/30 08:29:04;;;;;;;7.97;5.93;;;;;;;;;;5050024;28;20107;-67
2022/09/30 08:31:32;;;;;;;9.45;6.57;;;;;;;;;;5051708;28;20485;-66
2022/09/30 08:33:58;;;;;;;7.47;6.00;;;;;;;;;;5051187;28;20521;-67
2022/09/30 08:36:25;;;;;;;8.50;6.32;;;;;;;;;;5050522;28;20056;-67
2022/09/30 08:38:52;;;;;;;9.00;6.30;;;;;;;;;;5051222;28;20037;-74
2022/09/30 08:41:27;;;;;;;11.00;5.72;;;;;;;;;;5050727;28;20123;-67
2022/09/30 08:44:32;;;;;;;7.67;5.60;;;;;;;;;;5038097;28;20513;-66
2022/09/30 08:47:17;;;;;;;6.78;5.28;;;;;;;;;;5029112;28;20783;-67
2022/09/30 08:49:49;;;;;;;7.70;4.80;;;;;;;;;;5029648;28;20047;-67
2022/09/30 08:52:26;;;;;;;8.18;5.18;;;;;;;;;;5038150;28;20059;-74
2022/09/30 08:54:54;;;;;;;6.28;5.68;;;;;;;;;;5055101;28;20052;-73
2022/09/30 08:57:20;;;;;;;6.15;4.70;;;;;;;;;;5053250;28;20146;-74
2022/09/30 08:59:57;;;;;;;6.50;4.30;;;;;;;;;;5054897;28;20033;-68
2022/09/30 09:02:33;;;;;;;5.07;4.50;;;;;;;;;;5060201;28;20045;-67
2022/09/30 09:05:04;;;;;;;7.18;4.70;;;;;;;;;;5062693;28;20036;-68
2022/09/30 09:07:39;;;;;;;5.35;4.40;;;;;;;;;;5045853;28;20541;-68
2022/09/30 09:10:11;;;;;;;4.75;4.10;;;;;;;;;;5064175;28;20048;-74
2022/09/30 09:12:41;;;;;;;6.80;4.20;;;;;;;;;;5064734;28;20509;-73
2022/09/30 09:15:16;;;;;;;5.07;4.10;;;;;;;;;;5060944;28;20037;-74
2022/09/30 09:17:58;;;;;;;6.72;4.00;;;;;;;;;;5050804;28;20033;-76
2022/09/30 09:20:30;;;;;;;5.57;3.28;;;;;;;;;;5066917;28;20040;-76
2022/09/30 09:22:56;;;;;;;4.65;3.60;;;;;;;;;;5063971;28;20036;-76
2022/09/30 09:25:26;;;;;;;5.20;3.92;;;;;;;;;;5065986;28;20037;-76
2022/09/30 09:27:56;;;;;;;6.05;3.65;;;;;;;;;;5065646;28;20053;-78
2022/09/30 09:30:23;;;;;;;5.68;3.30;;;;;;;;;;5045546;28;20047;-79
2022/09/30 09:33:12;;;;;;;6.13;3.13;;;;;;;;;;5052955;28;20040;-77
2022/09/30 09:35:41;;;;;;;3.67;3.15;;;;;;;;;;5050027;28;20048;-79
2022/09/30 09:38:23;;;;;;;7.05;3.20;;;;;;;;;;5052436;28;20128;-77
2022/09/30 09:41:28;;;;;;;4.68;3.20;;;;;;;;;;5067733;28;20040;-78
2022/09/30 09:44:10;;;;;;;4.57;2.78;;;;;;;;;;5015748;28;20037;-79
2022/09/30 09:47:03;;;;;;;4.43;3.00;;;;;;;;;;4999772;28;20041;-78
2022/09/30 09:49:37;;;;;;;4.32;2.55;;;;;;;;;;5047150;28;20378;-78
2022/09/30 09:52:14;;;;;;;5.00;3.00;;;;;;;;;;5049037;28;20515;-78
2022/09/30 09:54:55;;;;;;;4.68;2.42;;;;;;;;;;5053810;28;20033;-78
2022/09/30 09:57:30;;;;;;;3.90;2.80;;;;;;;;;;5036270;28;20116;-78
2022/09/30 09:59:57;;;;;;;3.90;3.42;;;;;;;;;;5053552;28;20514;-75
2022/09/30 10:02:25;;;;;;;4.32;2.95;;;;;;;;;;5053062;28;20371;-75
2022/09/30 10:05:10;;;;;;;4.57;3.30;;;;;;;;;;5051577;28;20139;-75
2022/09/30 10:07:36;;;;;;;4.75;3.05;;;;;;;;;;5052885;28;20524;-75
2022/09/30 10:10:07;;;;;;;4.10;2.80;;;;;;;;;;5052099;28;20084;-75
2022/09/30 10:12:34;;;;;;;5.00;2.83;;;;;;;;;;5052644;28;20233;-73
2022/09/30 10:15:00;;;;;;;5.20;2.60;;;;;;;;;;5051121;28;20082;-75
2022/09/30 10:17:36;;;;;;;4.63;2.58;;;;;;;;;;5047994;28;20037;-76
2022/09/30 10:20:06;;;;;;;4.55;2.75;;;;;;;;;;5035479;28;20448;-76
2022/09/30 10:22:33;;;;;;;3.83;2.60;;;;;;;;;;5056713;28;20051;-76
2022/09/30 10:25:14;;;;;;;3.67;2.33;;;;;;;;;;5042047;28;20394;-76
2022/09/30 10:27:52;;;;;;;4.07;2.70;;;;;;;;;;5051014;28;20043;-74
2022/09/30 10:30:37;;;;;;;4.18;2.33;;;;;;;;;;5049310;28;20037;-73
2022/09/30 10:33:03;;;;;;;3.35;1.90;;;;;;;;;;5052379;28;20049;-73
2022/09/30 10:35:30;;;;;;;3.92;2.22;;;;;;;;;;5062588;28;20386;-74
2022/09/30 10:37:57;;;;;;;3.47;1.90;;;;;;;;;;5053796;28;20106;-73
2022/09/30 10:40:26;;;;;;;3.30;1.63;;;;;;;;;;5050391;28;20033;-75
2022/09/30 10:42:53;;;;;;;2.60;1.52;;;;;;;;;;5048153;28;20056;-76
2022/09/30 10:45:21;;;;;;;3.72;1.88;;;;;;;;;;5050387;28;20037;-77
2022/09/30 10:47:48;;;;;;;3.97;1.80;;;;;;;;;;5049127;28;20055;-76
2022/09/30 10:50:16;;;;;;;3.97;1.92;;;;;;;;;;5053152;28;20096;-77
2022/09/30 10:52:57;;;;;;;4.57;1.88;;;;;;;;;;5063025;28;20106;-76
2022/09/30 10:55:34;;;;;;;4.70;2.30;;;;;;;;;;5050192;28;20048;-77
2022/09/30 10:58:21;;;;;;;3.67;1.90;;;;;;;;;;5051113;28;20045;-76
2022/09/30 11:00:53;;;;;;;4.65;2.60;;;;;;;;;;5057634;28;20494;-77
2022/09/30 11:03:27;;;;;;;4.40;2.47;;;;;;;;;;5051962;28;20045;-77
2022/09/30 11:05:53;;;;;;;4.38;2.53;;;;;;;;;;5060656;28;20037;-75
2022/09/30 11:08:21;;;;;;;3.75;2.10;;;;;;;;;;5048617;28;20514;-74
2022/09/30 11:10:56;;;;;;;5.95;2.40;;;;;;;;;;5047675;28;20055;-73
2022/09/30 11:13:28;;;;;;;4.07;2.35;;;;;;;;;;5052135;28;20036;-75
2022/09/30 11:16:13;;;;;;;3.80;2.50;;;;;;;;;;5048187;28;20045;-73
2022/09/30 11:18:53;;;;;;;3.90;2.10;;;;;;;;;;5051657;28;20061;-74
2022/09/30 11:21:22;;;;;;;3.75;2.45;;;;;;;;;;5048749;28;20077;-75
2022/09/30 11:24:02;;;;;;;3.33;2.80;;;;;;;;;;5050650;28;20040;-76
2022/09/30 11:26:40;;;;;;;5.03;2.40;;;;;;;;;;5059232;28;20045;-76
2022/09/30 11:29:09;;;;;;;3.35;2.47;;;;;;;;;;5046343;28;20102;-76
2022/09/30 11:31:45;;;;;;;4.55;2.17;;;;;;;;;;5036407;28;20060;-78
2022/09/30 11:34:10;;;;;;;;;;;;;;;;;;5049233;28;20111;-76
2022/09/30 11:36:42;;;;;;;3.35;2.50;;;;;;;;;;5041609;28;19929;-77
2022/09/30 11:39:27;;;;;;;4.35;2.10;;;;;;;;;;5050621;28;20044;-76
2022/09/30 11:42:01;;;;;;;2.97;2.20;;;;;;;;;;5065103;28;20486;-78
2022/09/30 11:44:35;;;;;;;3.58;1.98;;;;;;;;;;5046760;28;20043;-74
2022/09/30 11:47:07;;;;;;;2.83;1.80;;;;;;;;;;5053069;28;20083;-76
2022/09/30 11:49:33;;;;;;;3.30;2.10;;;;;;;;;;5052547;28;20049;-79
2022/09/30 11:52:20;;;;;;;4.32;2.35;;;;;;;;;;5051677;28;20136;-73
2022/09/30 11:54:58;;;;;;;3.53;2.58;;;;;;;;;;5051824;28;20047;-76
2022/09/30 11:57:31;;;;;;;3.45;2.10;;;;;;;;;;5050417;28;20497;-75
2022/09/30 12:00:14;;;;;;;4.13;2.30;;;;;;;;;;5050128;28;20040;-75
2022/09/30 12:02:46;;;;;;;3.80;2.45;;;;;;;;;;5051128;28;20108;-75
2022/09/30 12:05:18;;;;;;;3.22;2.50;;;;;;;;;;5052380;28;20378;-73
2022/09/30 12:07:57;;;;;;;3.40;2.45;;;;;;;;;;5049297;28;20081;-76
2022/09/30 12:10:43;;;;;;;3.55;2.53;;;;;;;;;;5050902;28;20099;-77
2022/09/30 12:13:14;;;;;;;3.90;2.67;;;;;;;;;;5050759;28;20489;-79
2022/09/30 12:15:42;;;;;;;4.25;2.50;;;;;;;;;;5032677;28;20048;-76
2022/09/30 12:18:18;;;;;;;4.00;2.40;;;;;;;;;;5050159;28;20044;-76
2022/09/30 12:20:47;;;;;;;3.20;2.25;;;;;;;;;;5041387;28;20033;-76
2022/09/30 12:23:29;;;;;;;3.95;2.85;;;;;;;;;;5033128;28;20047;-72
2022/09/30 12:25:59;;;;;;;3.58;2.70;;;;;;;;;;5037055;28;20045;-76
2022/09/30 12:31:23;;;;;;;3.67;2.72;;;;;;;;;;5062568;28;20049;-76
2022/09/30 12:34:05;;;;;;;6.20;3.00;;;;;;;;;;5054423;28;20587;-74
2022/09/30 12:36:43;;;;;;;4.22;3.08;;;;;;;;;;5055629;28;20045;-75
2022/09/30 12:39:28;;;;;;;3.85;2.70;;;;;;;;;;5053969;28;20049;-76
2022/09/30 12:42:06;;;;;;;6.75;3.25;;;;;;;;;;5054145;28;20041;-74
2022/09/30 12:44:50;;;;;;;3.00;2.40;;;;;;;;;;5053255;28;20045;-74
2022/09/30 12:47:23;;;;;;;4.30;2.20;;;;;;;;;;5063490;28;20490;-73
2022/09/30 12:49:50;;;;;;;4.07;2.25;;;;;;;;;;5032640;28;20037;-73
2022/09/30 12:52:18;;;;;;;4.40;2.40;;;;;;;;;;5054366;28;20045;-74
2022/09/30 12:54:54;;;;;;;5.63;2.55;;;;;;;;;;5052713;28;20052;-73
2022/09/30 12:57:25;;;;;;;3.75;2.40;;;;;;;;;;5052363;28;20041;-74
2022/09/30 12:59:56;;;;;;;4.55;2.35;;;;;;;;;;5049876;28;20052;-74
2022/09/30 13:02:29;;;;;;;4.10;2.90;;;;;;;;;;5079804;28;20045;-74
2022/09/30 13:05:15;;;;;;;4.80;2.47;;;;;;;;;;5054508;28;20037;-73
2022/09/30 13:07:41;;;;;;;;;;;;;;;;;;5054746;28;20430;-74
2022/09/30 13:10:27;;;;;;;4.25;2.92;;;;;;;;;;5052897;28;19931;-73
2022/09/30 13:12:53;;;;;;;;;;;;;;;;;;5053925;28;20049;-73
2022/09/30 13:15:37;;;;;;;5.22;3.28;;;;;;;;;;5052273;28;19916;-74
2022/09/30 13:18:25;;;;;;;5.10;2.90;;;;;;;;;;5062964;28;20060;-74
2022/09/30 13:20:55;;;;;;;3.75;2.40;;;;;;;;;;5029325;28;20117;-74
2022/09/30 13:23:35;;;;;;;5.05;3.03;;;;;;;;;;5053421;28;20041;-73
2022/09/30 13:26:01;;;;;;;4.82;3.22;;;;;;;;;;5065662;28;20067;-79
2022/09/30 13:28:30;;;;;;;3.58;2.70;;;;;;;;;;5053925;28;20041;-76
2022/09/30 13:31:17;;;;;;;6.00;3.25;;;;;;;;;;5053599;28;20056;-77
2022/09/30 13:34:02;;;;;;;4.55;2.70;;;;;;;;;;5055595;28;20105;-79
2022/09/30 13:36:29;;;;;;;6.03;2.80;;;;;;;;;;5053289;28;20045;-80
2022/09/30 13:39:14;;;;;;;4.10;2.80;;;;;;;;;;5053057;28;20048;-80
2022/09/30 13:41:40;;;;;;;6.50;2.20;;;;;;;;;;5050426;28;20033;-80
2022/09/30 13:44:09;;;;;;;3.97;2.80;;;;;;;;;;5065253;28;20060;-74
2022/09/30 13:46:49;;;;;;;3.53;2.60;;;;;;;;;;5042849;28;20435;-78
2022/09/30 13:49:38;;;;;;;4.47;2.20;;;;;;;;;;5047648;28;20100;-76
2022/09/30 13:52:07;;;;;;;3.47;2.30;;;;;;;;;;5054250;28;20516;-76
2022/09/30 13:54:36;;;;;;;4.72;2.33;;;;;;;;;;5061747;28;20049;-75
2022/09/30 13:57:03;;;;;;;4.15;2.35;;;;;;;;;;5053922;28;20044;-74
2022/09/30 13:59:48;;;;;;;4.35;2.30;;;;;;;;;;5062322;28;20139;-74
2022/09/30 14:02:29;;;;;;;4.18;2.08;;;;;;;;;;5053347;28;20038;-75
2022/09/30 14:05:15;;;;;;;3.67;1.90;;;;;;;;;;5053848;28;20087;-74
2022/09/30 14:07:41;;;;;;;3.53;1.88;;;;;;;;;;5053437;28;20049;-75
2022/09/30 14:10:08;;;;;;;4.15;1.73;;;;;;;;;;5049994;28;20064;-74
2022/09/30 14:12:43;;;;;;;3.63;1.73;;;;;;;;;;5054113;28;20551;-74
2022/09/30 14:15:28;;;;;;;3.75;1.90;;;;;;;;;;5052365;28;20041;-74
2022/09/30 14:18:02;;;;;;;3.78;1.88;;;;;;;;;;5052330;28;20045;-74
2022/09/30 14:20:33;;;;;;;4.78;1.45;;;;;;;;;;5050848;28;20465;-75
2022/09/30 14:22:59;;;;;;;3.95;1.75;;;;;;;;;;5056538;28;20457;-76
2022/09/30 14:25:30;;;;;;;3.47;1.50;;;;;;;;;;5053871;28;20029;-75
2022/09/30 14:28:02;;;;;;;4.85;1.60;;;;;;;;;;5053613;28;20049;-75
2022/09/30 14:30:29;;;;;;;3.50;1.40;;;;;;;;;;5033947;28;20160;-74
2022/09/30 14:33:02;;;;;;;3.15;1.50;;;;;;;;;;5057856;28;20091;-74
2022/09/30 14:35:30;;;;;;;2.67;1.42;;;;;;;;;;5040090;28;20103;-66
2022/09/30 14:37:58;;;;;;;3.75;1.70;;;;;;;;;;5052065;28;20072;-65
2022/09/30 14:40:27;;;;;;;3.33;1.80;;;;;;;;;;5053029;28;20029;-65
2022/09/30 14:42:54;;;;;;;4.28;2.05;;;;;;;;;;5050726;28;20037;-66
2022/09/30 14:45:28;;;;;;;2.97;2.10;;;;;;;;;;5052458;28;20037;-65
2022/09/30 14:47:56;;;;;;;4.40;2.47;;;;;;;;;;5051456;28;20045;-65
2022/09/30 14:50:24;;;;;;;4.93;2.28;;;;;;;;;;5051535;28;20045;-65
2022/09/30 14:52:52;;;;;;;4.35;2.35;;;;;;;;;;5051244;28;20155;-66
2022/09/30 14:55:26;;;;;;;3.10;2.10;;;;;;;;;;5052997;28;20055;-66
2022/09/30 14:57:53;;;;;;;3.53;2.50;;;;;;;;;;5051822;28;20049;-65
2022/09/30 15:00:32;;;;;;;4.10;2.00;;;;;;;;;;5051830;28;20482;-66
2022/09/30 15:02:59;;;;;;;3.38;2.00;;;;;;;;;;5050411;28;20045;-65
2022/09/30 15:05:25;;;;;;;4.47;2.25;;;;;;;;;;5052724;28;20394;-66